createdAt,value
2023-03-12T00:02:23.959Z,99611.94
2023-03-12T00:04:51.516Z,99607.09
2023-03-12T00:07:19.572Z,99599.91
2023-03-12T00:09:47.120Z,99604.94
2023-03-12T00:12:14.879Z,99599.16
2023-03-12T00:14:42.331Z,99601.78
2023-03-12T00:17:10.425Z,99597.22
2023-03-12T00:19:39.247Z,99606.38
2023-03-12T00:22:06.995Z,99593.78
2023-03-12T00:24:34.413Z,99602.19
2023-03-12T00:27:02.408Z,99600.72
2023-03-12T00:29:29.896Z,99604.47
2023-03-12T00:31:57.713Z,99599.53
2023-03-12T00:34:25.517Z,99600.53
2023-03-12T00:36:54.737Z,99597.78
2023-03-12T00:39:22.150Z,99597.66
2023-03-12T00:41:49.889Z,99597.66
2023-03-12T00:44:17.403Z,99595.69
2023-03-12T00:46:45.571Z,99596.38
2023-03-12T00:49:13.361Z,99591.63
2023-03-12T00:51:41.246Z,99598.34
2023-03-12T00:54:10.249Z,99596.91
2023-03-12T00:56:38.023Z,99591.25
2023-03-12T00:59:05.563Z,99595.72
2023-03-12T01:01:33.814Z,99592.81
2023-03-12T01:04:01.489Z,99596.56
2023-03-12T01:06:29.320Z,99598.72
2023-03-12T01:08:56.666Z,99601.25
2023-03-12T01:11:25.990Z,99601.50
2023-03-12T01:13:55.426Z,99598.22
2023-03-12T01:16:23.423Z,99599.69
2023-03-12T01:18:50.769Z,99604.69
2023-03-12T01:21:18.505Z,99599.91
2023-03-12T01:23:46.054Z,99597.25
2023-03-12T01:26:13.802Z,99599.31
2023-03-12T01:28:42.689Z,99596.91
2023-03-12T01:31:15.292Z,99592.09
2023-03-12T01:33:42.967Z,99595.34
2023-03-12T01:36:18.529Z,99589.69
2023-03-12T01:38:46.264Z,99597.88
2023-03-12T01:41:14.237Z,99605.53
2023-03-12T01:43:43.095Z,99604.47
2023-03-12T01:46:32.990Z,99599.06
2023-03-12T01:49:05.657Z,99604.47
2023-03-12T01:51:38.302Z,99604.69
2023-03-12T01:54:09.198Z,99602.06
2023-03-12T01:56:38.826Z,99600.63
2023-03-12T01:59:12.743Z,99606.81
2023-03-12T02:01:41.903Z,99607.31
2023-03-12T02:04:09.970Z,99612.34
2023-03-12T02:06:41.737Z,99615.22
2023-03-12T02:09:09.750Z,99618.88
2023-03-12T02:11:37.532Z,99623.19
2023-03-12T02:14:04.985Z,99623.63
2023-03-12T02:16:34.192Z,99623.31
2023-03-12T02:19:04.807Z,99635.66
2023-03-12T02:21:34.307Z,99625.91
2023-03-12T02:24:08.653Z,99630.84
2023-03-12T02:26:39.424Z,99634.91
2023-03-12T02:29:08.785Z,99633.22
2023-03-12T02:31:42.051Z,99638.38
2023-03-12T02:34:09.678Z,99639.22
2023-03-12T02:36:37.818Z,99645.94
2023-03-12T02:39:05.189Z,99639.22
2023-03-12T02:41:36.602Z,99646.63
2023-03-12T02:44:08.925Z,99641.97
2023-03-12T02:46:41.182Z,99640.75
2023-03-12T02:49:09.144Z,99641.69
2023-03-12T02:51:36.880Z,99652.25
2023-03-12T02:54:04.696Z,99648.72
2023-03-12T02:56:32.740Z,99652.31
2023-03-12T02:59:01.556Z,99637.69
2023-03-12T03:01:32.622Z,99651.25
2023-03-12T03:04:00.407Z,99651.72
2023-03-12T03:06:28.790Z,99652.56
2023-03-12T03:08:56.357Z,99652.44
2023-03-12T03:11:24.580Z,99657.59
2023-03-12T03:13:52.408Z,99651.47
2023-03-12T03:16:20.544Z,99656.03
2023-03-12T03:18:49.480Z,99650.53
2023-03-12T03:21:17.865Z,99663.06
2023-03-12T03:23:46.548Z,99660.47
2023-03-12T03:26:16.416Z,99663.25
2023-03-12T03:31:10.761Z,99673.72
2023-03-12T03:33:39.704Z,99668.75
2023-03-12T03:36:10.534Z,99676.69
2023-03-12T03:38:37.980Z,99671.44
2023-03-12T03:41:06.074Z,99677.69
2023-03-12T03:43:33.912Z,99681.63
2023-03-12T03:46:04.070Z,99677.41
2023-03-12T03:48:32.017Z,99678.88
2023-03-12T03:51:00.956Z,99683.63
2023-03-12T03:53:30.244Z,99688.88
2023-03-12T03:55:58.251Z,99686.41
2023-03-12T03:58:25.714Z,99682.31
2023-03-12T04:00:54.709Z,99693.72
2023-03-12T04:03:22.183Z,99681.22
2023-03-12T04:05:55.181Z,99694.31
2023-03-12T04:08:22.641Z,99695.84
2023-03-12T04:10:52.306Z,99694.66
2023-03-12T04:13:20.201Z,99691.38
2023-03-12T04:15:48.759Z,99700.38
2023-03-12T04:18:16.512Z,99708.72
2023-03-12T04:20:45.150Z,99711.34
2023-03-12T04:23:12.594Z,99705.84
2023-03-12T04:25:40.431Z,99708.88
2023-03-12T04:28:09.383Z,99711.59
2023-03-12T04:30:37.371Z,99721.06
2023-03-12T04:33:04.921Z,99714.19
2023-03-12T04:35:32.925Z,99713.81
2023-03-12T04:38:01.709Z,99712.44
2023-03-12T04:40:29.546Z,99726.66
2023-03-12T04:42:56.996Z,99723.72
2023-03-12T04:45:26.872Z,99724.25
2023-03-12T04:47:54.360Z,99733.63
2023-03-12T04:50:25.195Z,99721.38
2023-03-12T04:52:52.672Z,99733.75
2023-03-12T04:55:20.504Z,99741.66
2023-03-12T04:57:47.958Z,99736.97
2023-03-12T05:00:16.510Z,99739.97
2023-03-12T05:02:45.311Z,99744.53
2023-03-12T05:05:13.425Z,99746.81
2023-03-12T05:07:40.991Z,99753.28
2023-03-12T05:10:10.079Z,99753.19
2023-03-12T05:12:37.700Z,99749.81
2023-03-12T05:15:06.469Z,99761.84
2023-03-12T05:17:34.160Z,99754.47
2023-03-12T05:20:03.838Z,99754.75
2023-03-12T05:22:31.349Z,99765.59
2023-03-12T05:24:59.637Z,99765.13
2023-03-12T05:27:27.049Z,99768.66
2023-03-12T05:29:54.809Z,99770.47
2023-03-12T05:32:22.303Z,99764.47
2023-03-12T05:34:50.283Z,99772.69
2023-03-12T05:37:19.202Z,99770.22
2023-03-12T05:39:47.621Z,99770.31
2023-03-12T05:42:15.380Z,99771.44
2023-03-12T05:44:43.179Z,99767.13
2023-03-12T05:47:10.634Z,99772.31
2023-03-12T05:49:38.556Z,99783.31
2023-03-12T05:52:06.671Z,99778.16
2023-03-12T05:54:36.095Z,99785.84
2023-03-12T05:57:03.615Z,99781.41
2023-03-12T05:59:31.682Z,99779.34
2023-03-12T06:01:59.271Z,99786.69
2023-03-12T06:04:27.317Z,99786.34
2023-03-12T06:06:55.107Z,99789.38
2023-03-12T06:09:22.899Z,99801.50
2023-03-12T06:11:51.807Z,99798.50
2023-03-12T06:14:20.163Z,99800.66
2023-03-12T06:16:47.698Z,99796.44
2023-03-12T06:19:15.812Z,99803.41
2023-03-12T06:21:44.181Z,99792.47
2023-03-12T06:24:12.476Z,99794.88
2023-03-12T06:26:39.972Z,99801.34
2023-03-12T06:29:09.859Z,99805.41
2023-03-12T06:31:38.990Z,99807.22
2023-03-12T06:34:07.414Z,99810.88
2023-03-12T06:36:35.056Z,99814.16
2023-03-12T06:39:03.805Z,99819.94
2023-03-12T06:41:31.327Z,99818.31
2023-03-12T06:43:59.809Z,99809.31
2023-03-12T06:46:29.131Z,99814.59
2023-03-12T06:48:57.025Z,99820.13
2023-03-12T06:51:25.140Z,99821.22
2023-03-12T06:53:53.326Z,99824.59
2023-03-12T06:56:21.134Z,99830.56
2023-03-12T06:58:49.115Z,99842.50
2023-03-12T07:01:17.730Z,99843.59
2023-03-12T07:03:47.512Z,99842.84
2023-03-12T07:06:17.721Z,99841.81
2023-03-12T07:08:46.589Z,99853.22
2023-03-12T07:11:15.033Z,99849.66
2023-03-12T07:13:44.196Z,99847.78
2023-03-12T07:16:12.682Z,99850.25
2023-03-12T07:18:41.702Z,99852.50
2023-03-12T07:21:10.744Z,99865.78
2023-03-12T07:23:38.698Z,99858.41
2023-03-12T07:26:06.573Z,99869.28
2023-03-12T07:28:34.794Z,99870.47
2023-03-12T07:31:03.064Z,99876.91
2023-03-12T07:33:31.321Z,99875.72
2023-03-12T07:35:59.519Z,99877.31
2023-03-12T07:38:29.467Z,99879.56
2023-03-12T07:40:58.672Z,99875.88
2023-03-12T07:43:27.256Z,99875.09
2023-03-12T07:45:54.713Z,99883.34
2023-03-12T07:48:22.896Z,99888.25
2023-03-12T07:50:50.823Z,99885.59
2023-03-12T07:53:19.143Z,99888.13
2023-03-12T07:55:48.538Z,99889.81
2023-03-12T07:58:17.435Z,99888.78
2023-03-12T08:00:44.975Z,99888.13
2023-03-12T08:03:13.422Z,99893.25
2023-03-12T08:05:41.140Z,99892.72
2023-03-12T08:08:09.199Z,99890.53
2023-03-12T08:10:36.918Z,99891.88
2023-03-12T08:13:06.850Z,99896.81
2023-03-12T08:15:34.424Z,99889.91
2023-03-12T08:18:02.262Z,99893.13
2023-03-12T08:20:29.939Z,99895.78
2023-03-12T08:23:00.908Z,99889.41
2023-03-12T08:25:28.624Z,99902.69
2023-03-12T08:27:56.465Z,99905.34
2023-03-12T08:30:25.462Z,99906.13
2023-03-12T08:32:53.722Z,99901.44
2023-03-12T08:35:21.183Z,99908.22
2023-03-12T08:37:49.368Z,99905.41
2023-03-12T08:40:17.366Z,99908.72
2023-03-12T08:42:45.418Z,99916.88
2023-03-12T08:45:13.687Z,99923.13
2023-03-12T08:47:43.317Z,99904.94
2023-03-12T08:50:15.485Z,99913.13
2023-03-12T08:52:44.007Z,99910.69
2023-03-12T08:55:11.812Z,99914.13
2023-03-12T08:57:40.166Z,99922.25
2023-03-12T09:00:08.994Z,99919.72
2023-03-12T09:02:37.087Z,99919.06
2023-03-12T09:05:07.367Z,99925.88
2023-03-12T09:07:35.478Z,99922.28
2023-03-12T09:10:03.097Z,99922.88
2023-03-12T09:12:31.174Z,99916.81
2023-03-12T09:15:03.481Z,99924.94
2023-03-12T09:17:32.842Z,99923.94
2023-03-12T09:20:00.749Z,99921.00
2023-03-12T09:22:30.962Z,99929.63
2023-03-12T09:24:58.664Z,99928.66
2023-03-12T09:27:27.207Z,99925.28
2023-03-12T09:30:00.256Z,99922.88
2023-03-12T09:32:28.933Z,99925.31
2023-03-12T09:34:56.379Z,99924.19
2023-03-12T09:37:24.828Z,99915.66
2023-03-12T09:39:54.952Z,99918.88
2023-03-12T09:42:25.923Z,99919.03
2023-03-12T09:44:56.110Z,99919.44
2023-03-12T09:47:29.878Z,99927.69
2023-03-12T09:50:03.160Z,99915.16
2023-03-12T09:52:34.294Z,99914.84
2023-03-12T09:55:08.234Z,99914.66
2023-03-12T09:57:36.403Z,99913.44
2023-03-12T10:00:05.565Z,99910.81
2023-03-12T10:03:15.339Z,99906.84
2023-03-12T10:05:47.732Z,99909.75
2023-03-12T10:08:28.155Z,99904.72
2023-03-12T10:11:06.630Z,99916.50
2023-03-12T10:14:00.209Z,99904.28
2023-03-12T10:16:38.142Z,99908.22
2023-03-12T10:19:18.519Z,99908.47
2023-03-12T10:21:55.374Z,99918.75
2023-03-12T10:24:33.924Z,99911.22
2023-03-12T10:27:07.478Z,99917.16
2023-03-12T10:29:39.630Z,99918.47
2023-03-12T10:32:13.935Z,99915.66
2023-03-12T10:34:46.012Z,99914.81
2023-03-12T10:37:18.412Z,99909.53
2023-03-12T10:39:47.291Z,99912.88
2023-03-12T10:42:22.121Z,99911.88
2023-03-12T10:44:54.321Z,99905.00
2023-03-12T10:47:33.191Z,99906.44
2023-03-12T10:50:15.111Z,99906.13
2023-03-12T10:52:43.790Z,99913.19
2023-03-12T10:55:20.327Z,99914.63
2023-03-12T10:57:50.235Z,99910.94
2023-03-12T11:00:24.114Z,99913.66
2023-03-12T11:03:00.694Z,99917.88
2023-03-12T11:05:31.824Z,99912.19
2023-03-12T11:08:00.620Z,99903.97
2023-03-12T11:10:41.996Z,99900.94
2023-03-12T11:13:30.227Z,99908.81
2023-03-12T11:16:00.746Z,99903.16
2023-03-12T11:18:31.772Z,99890.44
2023-03-12T11:21:17.462Z,99893.56
2023-03-12T11:24:01.974Z,99894.63
2023-03-12T11:26:34.126Z,99888.50
2023-03-12T11:29:07.381Z,99894.25
2023-03-12T11:31:41.757Z,99898.78
2023-03-12T11:34:19.501Z,99898.81
2023-03-12T11:36:55.738Z,99895.63
2023-03-12T11:39:31.268Z,99884.72
2023-03-12T11:42:18.993Z,99892.09
2023-03-12T11:45:00.427Z,99883.00
2023-03-12T11:47:46.869Z,99893.09
2023-03-12T11:50:28.157Z,99883.72
2023-03-12T11:53:26.674Z,99884.38
2023-03-12T11:56:07.014Z,99877.69
2023-03-12T11:59:09.480Z,99874.13
2023-03-12T12:01:53.586Z,99879.00
2023-03-12T12:05:06.685Z,99864.78
2023-03-12T12:07:51.849Z,99865.25
2023-03-12T12:10:31.281Z,99870.13
2023-03-12T12:13:14.954Z,99858.06
2023-03-12T12:15:53.432Z,99858.72
2023-03-12T12:18:39.543Z,99856.75
2023-03-12T12:21:23.514Z,99853.41
2023-03-12T12:24:03.104Z,99854.22
2023-03-12T12:26:39.162Z,99855.09
2023-03-12T12:29:20.984Z,99855.06
2023-03-12T12:31:54.441Z,99840.97
2023-03-12T12:35:03.169Z,99832.88
2023-03-12T12:37:47.536Z,99833.72
2023-03-12T12:40:21.304Z,99829.09
2023-03-12T12:42:56.737Z,99835.19
2023-03-12T12:45:26.148Z,99827.63
2023-03-12T12:47:59.276Z,99832.56
2023-03-12T12:50:33.752Z,99826.41
2023-03-12T12:53:13.914Z,99822.78
2023-03-12T12:55:46.746Z,99832.13
2023-03-12T12:58:22.014Z,99823.72
2023-03-12T13:00:52.088Z,99829.34
2023-03-12T13:03:24.151Z,99820.38
2023-03-12T13:06:02.891Z,99824.94
2023-03-12T13:08:56.324Z,99819.72
2023-03-12T13:11:28.621Z,99808.47
2023-03-12T13:14:22.533Z,99811.16
2023-03-12T13:17:07.179Z,99807.50
2023-03-12T13:19:55.280Z,99806.56
2023-03-12T13:22:59.012Z,99789.16
2023-03-12T13:25:39.921Z,99788.47
2023-03-12T13:28:29.674Z,99797.94
2023-03-12T13:30:59.311Z,99804.31
2023-03-12T13:33:45.230Z,99794.81
2023-03-12T13:36:24.302Z,99802.88
2023-03-12T13:38:58.885Z,99803.19
2023-03-12T13:41:38.015Z,99807.06
2023-03-12T13:44:37.621Z,99810.94
2023-03-12T13:47:21.258Z,99812.78
2023-03-12T13:49:55.296Z,99810.06
2023-03-12T13:52:26.112Z,99814.31
2023-03-12T13:55:03.340Z,99808.94
2023-03-12T13:57:39.072Z,99804.25
2023-03-12T14:00:15.533Z,99792.41
2023-03-12T14:02:48.987Z,99790.16
2023-03-12T14:05:19.519Z,99797.31
2023-03-12T14:08:18.152Z,99796.13
2023-03-12T14:11:00.725Z,99805.44
2023-03-12T14:13:43.080Z,99800.75
2023-03-12T14:16:22.317Z,99798.66
2023-03-12T14:18:52.470Z,99787.47
2023-03-12T14:21:21.994Z,99789.00
2023-03-12T14:23:54.924Z,99796.72
2023-03-12T14:26:27.290Z,99791.59
2023-03-12T14:28:59.858Z,99790.25
2023-03-12T14:31:30.018Z,99783.75
2023-03-12T14:34:02.962Z,99778.78
2023-03-12T14:36:36.223Z,99767.28
2023-03-12T14:39:18.512Z,99772.56
2023-03-12T14:41:53.908Z,99787.13
2023-03-12T14:44:24.681Z,99775.66
2023-03-12T14:47:02.618Z,99782.81
2023-03-12T14:49:32.050Z,99780.75
2023-03-12T14:52:02.738Z,99772.97
2023-03-12T14:54:33.604Z,99773.13
2023-03-12T14:57:03.192Z,99774.16
2023-03-12T14:59:33.227Z,99776.00
2023-03-12T15:02:10.897Z,99769.25
2023-03-12T15:04:40.575Z,99758.75
2023-03-12T15:07:12.072Z,99752.75
2023-03-12T15:09:43.941Z,99757.91
2023-03-12T15:12:21.118Z,99758.81
2023-03-12T15:14:53.522Z,99771.69
2023-03-12T15:17:23.666Z,99769.72
2023-03-12T15:19:53.107Z,99774.53
2023-03-12T15:22:24.236Z,99766.69
2023-03-12T15:24:52.353Z,99756.13
2023-03-12T15:27:31.391Z,99756.41
2023-03-12T15:30:01.121Z,99744.06
2023-03-12T15:32:29.258Z,99751.00
2023-03-12T15:34:59.169Z,99750.72
2023-03-12T15:37:29.543Z,99758.72
2023-03-12T15:39:57.709Z,99753.69
2023-03-12T15:42:28.148Z,99762.91
2023-03-12T15:44:58.832Z,99748.88
2023-03-12T15:47:29.586Z,99752.88
2023-03-12T15:50:00.423Z,99754.69
2023-03-12T15:52:33.655Z,99736.44
2023-03-12T15:55:06.806Z,99724.53
2023-03-12T15:57:44.111Z,99703.59
2023-03-12T16:00:27.228Z,99699.31
2023-03-12T16:02:57.282Z,99701.59
2023-03-12T16:05:28.190Z,99698.97
2023-03-12T16:08:01.384Z,99697.44
2023-03-12T16:10:29.933Z,99704.94
2023-03-12T16:13:03.467Z,99716.16
2023-03-12T16:15:33.583Z,99720.09
2023-03-12T16:18:01.165Z,99697.78
2023-03-12T16:20:29.482Z,99687.44
2023-03-12T16:22:57.567Z,99682.97
2023-03-12T16:25:25.955Z,99676.81
2023-03-12T16:27:56.680Z,99669.66
2023-03-12T16:30:45.020Z,99667.00
2023-03-12T16:33:22.714Z,99666.16
2023-03-12T16:35:53.915Z,99663.03
2023-03-12T16:38:21.723Z,99664.16
2023-03-12T16:40:51.642Z,99659.28
2023-03-12T16:43:21.260Z,99675.56
2023-03-12T16:45:52.084Z,99682.09
2023-03-12T16:48:23.536Z,99677.69
2023-03-12T16:50:53.384Z,99682.97
2023-03-12T16:53:21.941Z,99688.63
2023-03-12T16:55:52.757Z,99695.22
2023-03-12T16:58:25.117Z,99692.66
2023-03-12T17:00:56.178Z,99688.13
2023-03-12T17:03:32.381Z,99694.47
2023-03-12T17:06:01.475Z,99691.13
2023-03-12T17:08:30.189Z,99693.59
2023-03-12T17:10:59.773Z,99701.66
2023-03-12T17:13:28.950Z,99693.09
2023-03-12T17:15:58.907Z,99684.81
2023-03-12T17:18:26.559Z,99688.63
2023-03-12T17:20:54.504Z,99687.81
2023-03-12T17:23:22.070Z,99697.72
2023-03-12T17:25:50.058Z,99701.78
2023-03-12T17:28:17.921Z,99700.97
2023-03-12T17:30:45.973Z,99701.59
2023-03-12T17:33:16.865Z,99705.72
2023-03-12T17:35:47.495Z,99708.06
2023-03-12T17:38:15.119Z,99705.06
2023-03-12T17:40:44.419Z,99709.06
2023-03-12T17:43:12.263Z,99712.59
2023-03-12T17:45:40.369Z,99714.94
2023-03-12T17:48:08.221Z,99714.03
2023-03-12T17:50:38.328Z,99715.59
2023-03-12T17:53:06.220Z,99711.66
2023-03-12T17:55:35.296Z,99709.91
2023-03-12T17:58:03.162Z,99692.31
2023-03-12T18:00:31.117Z,99689.25
2023-03-12T18:02:58.714Z,99685.13
2023-03-12T18:05:26.892Z,99681.94
2023-03-12T18:07:56.026Z,99665.81
2023-03-12T18:10:27.659Z,99663.84
2023-03-12T18:13:00.752Z,99666.09
2023-03-12T18:15:29.129Z,99657.16
2023-03-12T18:17:57.984Z,99659.66
2023-03-12T18:20:37.724Z,99655.47
2023-03-12T18:23:08.205Z,99657.22
2023-03-12T18:25:37.741Z,99667.31
2023-03-12T18:28:05.798Z,99663.38
2023-03-12T18:30:34.043Z,99659.19
2023-03-12T18:33:01.586Z,99658.19
2023-03-12T18:35:30.371Z,99659.56
2023-03-12T18:37:59.167Z,99661.56
2023-03-12T18:40:29.690Z,99646.72
2023-03-12T18:42:58.173Z,99642.91
2023-03-12T18:45:27.473Z,99639.56
2023-03-12T18:47:55.253Z,99633.28
2023-03-12T18:50:24.297Z,99638.34
2023-03-12T18:52:52.068Z,99633.75
2023-03-12T18:55:22.843Z,99620.13
2023-03-12T18:57:52.557Z,99614.81
2023-03-12T19:00:24.141Z,99612.59
2023-03-12T19:02:51.979Z,99602.91
2023-03-12T19:05:20.333Z,99595.34
2023-03-12T19:07:50.809Z,99605.13
2023-03-12T19:10:19.368Z,99611.66
2023-03-12T19:12:53.362Z,99605.31
2023-03-12T19:15:26.698Z,99615.13
2023-03-12T19:17:54.476Z,99611.34
2023-03-12T19:20:25.062Z,99608.91
2023-03-12T19:22:54.660Z,99604.47
2023-03-12T19:25:24.102Z,99589.44
2023-03-12T19:27:51.867Z,99586.09
2023-03-12T19:30:20.303Z,99589.13
2023-03-12T19:32:51.187Z,99585.97
2023-03-12T19:35:19.562Z,99586.75
2023-03-12T19:37:47.120Z,99584.72
2023-03-12T19:40:17.741Z,99595.75
2023-03-12T19:42:45.271Z,99589.53
2023-03-12T19:45:13.503Z,99590.63
2023-03-12T19:47:41.453Z,99584.59
2023-03-12T19:50:12.676Z,99583.78
2023-03-12T19:52:40.309Z,99576.47
2023-03-12T19:55:08.892Z,99582.63
2023-03-12T19:57:37.137Z,99586.84
2023-03-12T20:00:07.366Z,99585.88
2023-03-12T20:02:35.070Z,99582.38
2023-03-12T20:05:03.474Z,99593.44
2023-03-12T20:07:32.575Z,99598.81
2023-03-12T20:10:01.162Z,99594.13
2023-03-12T20:12:28.609Z,99590.09
2023-03-12T20:14:57.410Z,99590.53
2023-03-12T20:17:27.399Z,99591.84
2023-03-12T20:19:55.885Z,99593.28
2023-03-12T20:22:23.731Z,99593.97
2023-03-12T20:24:53.770Z,99606.09
2023-03-12T20:27:21.714Z,99614.22
2023-03-12T20:29:50.109Z,99604.94
2023-03-12T20:32:17.799Z,99607.53
2023-03-12T20:34:45.904Z,99611.94
2023-03-12T20:37:13.402Z,99612.56
2023-03-12T20:39:41.507Z,99607.44
2023-03-12T20:42:10.689Z,99595.13
2023-03-12T20:44:39.576Z,99598.44
2023-03-12T20:47:07.193Z,99603.63
2023-03-12T20:49:35.338Z,99599.97
2023-03-12T20:52:03.262Z,99595.13
2023-03-12T20:54:31.310Z,99596.78
2023-03-12T20:56:58.949Z,99595.44
2023-03-12T20:59:29.039Z,99593.66
2023-03-12T21:01:57.141Z,99592.69
2023-03-12T21:04:25.589Z,99586.13
2023-03-12T21:06:53.205Z,99587.44
2023-03-12T21:09:22.264Z,99585.50
2023-03-12T21:11:49.917Z,99586.56
2023-03-12T21:14:17.765Z,99578.38
2023-03-12T21:16:46.838Z,99582.84
2023-03-12T21:19:14.787Z,99579.03
2023-03-12T21:21:42.414Z,99575.53
2023-03-12T21:24:10.646Z,99574.16
2023-03-12T21:26:38.128Z,99571.59
2023-03-12T21:29:05.981Z,99574.63
2023-03-12T21:31:33.751Z,99574.19
2023-03-12T21:34:03.221Z,99565.84
2023-03-12T21:36:31.581Z,99561.16
2023-03-12T21:39:00.964Z,99558.09
2023-03-12T21:41:28.519Z,99563.81
2023-03-12T21:43:56.449Z,99562.97
2023-03-12T21:46:23.852Z,99561.38
2023-03-12T21:48:51.900Z,99562.00
2023-03-12T21:51:20.825Z,99558.78
2023-03-12T21:53:53.247Z,99558.13
2023-03-12T21:56:20.868Z,99551.06
2023-03-12T21:58:48.888Z,99564.31
2023-03-12T22:01:18.141Z,99551.38
2023-03-12T22:03:46.925Z,99560.47
2023-03-12T22:06:15.585Z,99551.03
2023-03-12T22:08:46.234Z,99554.75
2023-03-12T22:11:14.164Z,99553.50
2023-03-12T22:13:42.060Z,99546.72
2023-03-12T22:16:11.924Z,99542.63
2023-03-12T22:18:40.846Z,99534.31
2023-03-12T22:21:09.131Z,99534.06
2023-03-12T22:23:37.400Z,99534.69
2023-03-12T22:26:07.704Z,99536.66
2023-03-12T22:28:36.307Z,99541.50
2023-03-12T22:31:06.119Z,99529.66
2023-03-12T22:33:34.609Z,99526.22
2023-03-12T22:36:06.227Z,99535.84
2023-03-12T22:38:35.027Z,99526.25
2023-03-12T22:41:13.899Z,99519.25
2023-03-12T22:43:41.824Z,99522.56
2023-03-12T22:46:09.665Z,99520.75
2023-03-12T22:48:37.704Z,99518.25
2023-03-12T22:51:06.164Z,99524.66
2023-03-12T22:53:34.319Z,99519.75
2023-03-12T22:56:04.010Z,99514.41
2023-03-12T22:58:33.554Z,99519.75
2023-03-12T23:01:01.717Z,99526.00
2023-03-12T23:03:31.060Z,99514.13
2023-03-12T23:05:59.276Z,99507.16
2023-03-12T23:08:28.918Z,99508.66
2023-03-12T23:10:58.464Z,99496.81
2023-03-12T23:13:27.897Z,99485.91
2023-03-12T23:16:01.834Z,99487.75
2023-03-12T23:18:29.736Z,99489.91
2023-03-12T23:21:01.121Z,99491.25
2023-03-12T23:23:29.233Z,99481.59
2023-03-12T23:25:58.394Z,99481.97
2023-03-12T23:28:27.220Z,99473.13
2023-03-12T23:30:57.001Z,99474.06
2023-03-12T23:33:25.277Z,99466.56
2023-03-12T23:35:57.849Z,99458.41
2023-03-12T23:38:27.297Z,99460.63
2023-03-12T23:40:59.827Z,99457.13
2023-03-12T23:43:27.712Z,99461.63
2023-03-12T23:46:00.458Z,99472.16
2023-03-12T23:48:30.274Z,99463.34
2023-03-12T23:51:05.069Z,99474.31
2023-03-12T23:53:33.421Z,99478.47
2023-03-12T23:56:02.578Z,99486.47
2023-03-12T23:58:30.431Z,99481.59
